Aviation

FTHA31 MTPP 231600
TAF MTPP 231600Z 2312/2412 30008KT 9999 SCT028
PROB40 TEMPO 2400/2406 4500 SHRA SCT014CB BKN030
BECMG 2408/2410 VRB02KT 8000 NSW FEW020
BECMG 2412/2416 09010KT=